sensor_id;sensor_type;location;lat;lon;timestamp;pressure;altitude;pressure_sealevel;temperature;humidity
32131;BME280;18639;50.716;7.086;2024-01-16T00:02:13;99715.94;;;1.79;100.00
32131;BME280;18639;50.716;7.086;2024-01-16T00:04:38;99727.66;;;1.83;100.00
32131;BME280;18639;50.716;7.086;2024-01-16T00:07:05;99711.00;;;1.75;100.00
32131;BME280;18639;50.716;7.086;2024-01-16T00:09:33;99724.34;;;1.81;100.00
32131;BME280;18639;50.716;7.086;2024-01-16T00:11:59;99724.50;;;1.77;100.00
32131;BME280;18639;50.716;7.086;2024-01-16T00:14:25;99705.31;;;1.68;100.00
32131;BME280;18639;50.716;7.086;2024-01-16T00:16:50;99725.06;;;1.85;100.00
32131;BME280;18639;50.716;7.086;2024-01-16T00:19:15;99688.97;;;1.52;100.00
32131;BME280;18639;50.716;7.086;2024-01-16T00:21:41;99685.41;;;1.56;100.00
32131;BME280;18639;50.716;7.086;2024-01-16T00:24:07;99727.47;;;1.88;100.00
32131;BME280;18639;50.716;7.086;2024-01-16T00:26:33;99721.53;;;1.87;100.00
32131;BME280;18639;50.716;7.086;2024-01-16T00:28:58;99735.06;;;1.89;100.00
32131;BME280;18639;50.716;7.086;2024-01-16T00:31:23;99724.03;;;1.89;100.00
32131;BME280;18639;50.716;7.086;2024-01-16T00:33:49;99709.88;;;1.82;100.00
32131;BME280;18639;50.716;7.086;2024-01-16T00:36:14;99732.22;;;1.97;100.00
32131;BME280;18639;50.716;7.086;2024-01-16T00:38:40;99717.41;;;1.85;100.00
32131;BME280;18639;50.716;7.086;2024-01-16T00:41:05;99721.81;;;1.81;100.00
32131;BME280;18639;50.716;7.086;2024-01-16T00:43:32;99736.16;;;1.82;100.00
32131;BME280;18639;50.716;7.086;2024-01-16T00:45:57;99754.41;;;1.93;100.00
32131;BME280;18639;50.716;7.086;2024-01-16T00:48:22;99737.00;;;1.83;100.00
32131;BME280;18639;50.716;7.086;2024-01-16T00:50:48;99722.56;;;1.83;100.00
32131;BME280;18639;50.716;7.086;2024-01-16T00:53:16;99745.94;;;1.93;100.00
32131;BME280;18639;50.716;7.086;2024-01-16T00:55:42;99723.19;;;1.66;100.00
32131;BME280;18639;50.716;7.086;2024-01-16T00:58:07;99746.91;;;1.90;100.00
32131;BME280;18639;50.716;7.086;2024-01-16T01:00:32;99750.34;;;1.89;100.00
32131;BME280;18639;50.716;7.086;2024-01-16T01:03:00;99752.09;;;1.87;100.00
32131;BME280;18639;50.716;7.086;2024-01-16T01:05:25;99768.16;;;1.89;100.00
32131;BME280;18639;50.716;7.086;2024-01-16T01:07:54;99758.03;;;1.88;100.00
32131;BME280;18639;50.716;7.086;2024-01-16T01:10:20;99764.78;;;1.89;100.00
32131;BME280;18639;50.716;7.086;2024-01-16T01:12:45;99768.94;;;1.91;100.00
32131;BME280;18639;50.716;7.086;2024-01-16T01:15:10;99757.19;;;1.87;100.00
32131;BME280;18639;50.716;7.086;2024-01-16T01:17:36;99772.47;;;2.09;100.00
32131;BME280;18639;50.716;7.086;2024-01-16T01:20:01;99775.44;;;1.98;100.00
32131;BME280;18639;50.716;7.086;2024-01-16T01:22:26;99750.56;;;1.83;100.00
32131;BME280;18639;50.716;7.086;2024-01-16T01:24:52;99774.59;;;1.98;100.00
32131;BME280;18639;50.716;7.086;2024-01-16T01:27:17;99755.56;;;1.86;100.00
32131;BME280;18639;50.716;7.086;2024-01-16T01:29:42;99747.31;;;1.80;100.00
32131;BME280;18639;50.716;7.086;2024-01-16T01:32:08;99783.03;;;2.00;100.00
32131;BME280;18639;50.716;7.086;2024-01-16T01:34:33;99787.19;;;2.02;100.00
32131;BME280;18639;50.716;7.086;2024-01-16T01:36:59;99772.31;;;1.92;100.00
32131;BME280;18639;50.716;7.086;2024-01-16T01:39:24;99765.63;;;1.89;100.00
32131;BME280;18639;50.716;7.086;2024-01-16T01:41:50;99782.19;;;1.99;100.00
32131;BME280;18639;50.716;7.086;2024-01-16T01:44:15;99763.34;;;1.82;100.00
32131;BME280;18639;50.716;7.086;2024-01-16T01:46:41;99788.97;;;2.00;100.00
32131;BME280;18639;50.716;7.086;2024-01-16T01:49:07;99798.97;;;2.05;100.00
32131;BME280;18639;50.716;7.086;2024-01-16T01:51:33;99800.59;;;2.07;100.00
32131;BME280;18639;50.716;7.086;2024-01-16T01:54:00;99787.34;;;1.98;100.00
32131;BME280;18639;50.716;7.086;2024-01-16T01:56:27;99764.84;;;1.87;100.00
32131;BME280;18639;50.716;7.086;2024-01-16T01:58:57;99804.06;;;2.05;100.00
32131;BME280;18639;50.716;7.086;2024-01-16T02:01:24;99790.72;;;1.98;100.00
32131;BME280;18639;50.716;7.086;2024-01-16T02:03:52;99797.50;;;1.99;100.00
32131;BME280;18639;50.716;7.086;2024-01-16T02:06:17;99806.00;;;1.98;100.00
32131;BME280;18639;50.716;7.086;2024-01-16T02:08:44;99818.53;;;2.04;100.00
32131;BME280;18639;50.716;7.086;2024-01-16T02:11:09;99814.50;;;1.99;100.00
32131;BME280;18639;50.716;7.086;2024-01-16T02:14:00;99821.31;;;1.98;100.00
32131;BME280;18639;50.716;7.086;2024-01-16T02:16:26;99824.09;;;1.92;100.00
32131;BME280;18639;50.716;7.086;2024-01-16T02:18:52;99827.59;;;1.90;100.00
32131;BME280;18639;50.716;7.086;2024-01-16T02:21:22;99812.34;;;1.88;100.00
32131;BME280;18639;50.716;7.086;2024-01-16T02:23:47;99822.00;;;1.80;100.00
32131;BME280;18639;50.716;7.086;2024-01-16T02:26:14;99814.38;;;1.80;100.00
32131;BME280;18639;50.716;7.086;2024-01-16T02:28:40;99802.09;;;1.68;100.00
32131;BME280;18639;50.716;7.086;2024-01-16T02:31:07;99795.22;;;1.70;100.00
32131;BME280;18639;50.716;7.086;2024-01-16T02:33:32;99808.72;;;1.72;100.00
32131;BME280;18639;50.716;7.086;2024-01-16T02:35:58;99814.63;;;1.73;100.00
32131;BME280;18639;50.716;7.086;2024-01-16T02:38:23;99782.38;;;1.50;100.00
32131;BME280;18639;50.716;7.086;2024-01-16T02:40:50;99801.59;;;1.58;100.00
32131;BME280;18639;50.716;7.086;2024-01-16T02:43:15;99782.34;;;1.51;100.00
32131;BME280;18639;50.716;7.086;2024-01-16T02:45:40;99774.34;;;1.39;100.00
32131;BME280;18639;50.716;7.086;2024-01-16T02:48:06;99796.03;;;1.49;100.00
32131;BME280;18639;50.716;7.086;2024-01-16T02:50:31;99790.75;;;1.53;100.00
32131;BME280;18639;50.716;7.086;2024-01-16T02:52:56;99767.75;;;1.33;100.00
32131;BME280;18639;50.716;7.086;2024-01-16T02:55:22;99785.88;;;1.47;100.00
32131;BME280;18639;50.716;7.086;2024-01-16T02:57:47;99795.69;;;1.58;100.00
32131;BME280;18639;50.716;7.086;2024-01-16T03:00:12;99803.19;;;1.61;100.00
32131;BME280;18639;50.716;7.086;2024-01-16T03:02:39;99816.03;;;1.58;100.00
32131;BME280;18639;50.716;7.086;2024-01-16T03:05:04;99799.66;;;1.42;100.00
32131;BME280;18639;50.716;7.086;2024-01-16T03:07:30;99810.81;;;1.61;100.00
32131;BME280;18639;50.716;7.086;2024-01-16T03:09:55;99788.69;;;1.40;100.00
32131;BME280;18639;50.716;7.086;2024-01-16T03:12:20;99806.75;;;1.57;100.00
32131;BME280;18639;50.716;7.086;2024-01-16T03:14:46;99805.97;;;1.55;100.00
32131;BME280;18639;50.716;7.086;2024-01-16T03:17:11;99807.63;;;1.56;100.00
32131;BME280;18639;50.716;7.086;2024-01-16T03:19:36;99785.84;;;1.49;100.00
32131;BME280;18639;50.716;7.086;2024-01-16T03:22:02;99811.44;;;1.67;100.00
32131;BME280;18639;50.716;7.086;2024-01-16T03:24:28;99816.91;;;1.80;100.00
32131;BME280;18639;50.716;7.086;2024-01-16T03:26:53;99784.06;;;1.51;100.00
32131;BME280;18639;50.716;7.086;2024-01-16T03:29:19;99817.66;;;1.82;100.00
32131;BME280;18639;50.716;7.086;2024-01-16T03:31:44;99808.63;;;1.75;100.00
32131;BME280;18639;50.716;7.086;2024-01-16T03:34:09;99803.16;;;1.84;100.00
32131;BME280;18639;50.716;7.086;2024-01-16T03:36:36;99806.78;;;1.79;100.00
32131;BME280;18639;50.716;7.086;2024-01-16T03:39:01;99799.00;;;1.82;100.00
32131;BME280;18639;50.716;7.086;2024-01-16T03:41:27;99789.34;;;1.68;100.00
32131;BME280;18639;50.716;7.086;2024-01-16T03:43:52;99803.16;;;1.84;100.00
32131;BME280;18639;50.716;7.086;2024-01-16T03:46:20;99800.16;;;1.75;100.00
32131;BME280;18639;50.716;7.086;2024-01-16T03:48:45;99798.22;;;1.81;100.00
32131;BME280;18639;50.716;7.086;2024-01-16T03:51:10;99791.78;;;1.71;100.00
32131;BME280;18639;50.716;7.086;2024-01-16T03:53:35;99814.19;;;1.85;100.00
32131;BME280;18639;50.716;7.086;2024-01-16T03:56:01;99795.00;;;1.76;100.00
32131;BME280;18639;50.716;7.086;2024-01-16T03:58:26;99814.25;;;1.83;100.00
32131;BME280;18639;50.716;7.086;2024-01-16T04:00:51;99799.31;;;1.74;100.00
32131;BME280;18639;50.716;7.086;2024-01-16T04:03:18;99807.06;;;1.71;100.00
32131;BME280;18639;50.716;7.086;2024-01-16T04:05:43;99821.28;;;1.77;100.00
32131;BME280;18639;50.716;7.086;2024-01-16T04:08:09;99813.75;;;1.74;100.00
32131;BME280;18639;50.716;7.086;2024-01-16T04:10:34;99824.06;;;1.71;100.00
32131;BME280;18639;50.716;7.086;2024-01-16T04:13:00;99815.59;;;1.70;100.00
32131;BME280;18639;50.716;7.086;2024-01-16T04:15:26;99800.97;;;1.52;100.00
32131;BME280;18639;50.716;7.086;2024-01-16T04:17:52;99800.91;;;1.55;100.00
32131;BME280;18639;50.716;7.086;2024-01-16T04:20:17;99810.94;;;1.58;100.00
32131;BME280;18639;50.716;7.086;2024-01-16T04:22:42;99791.59;;;1.54;100.00
32131;BME280;18639;50.716;7.086;2024-01-16T04:25:07;99797.00;;;1.45;100.00
32131;BME280;18639;50.716;7.086;2024-01-16T04:27:33;99803.47;;;1.53;100.00
32131;BME280;18639;50.716;7.086;2024-01-16T04:29:58;99801.16;;;1.47;100.00
32131;BME280;18639;50.716;7.086;2024-01-16T04:32:23;99774.34;;;1.39;100.00
32131;BME280;18639;50.716;7.086;2024-01-16T04:34:49;99805.06;;;1.56;100.00
32131;BME280;18639;50.716;7.086;2024-01-16T04:37:14;99787.72;;;1.44;100.00
32131;BME280;18639;50.716;7.086;2024-01-16T04:39:39;99810.94;;;1.58;100.00
32131;BME280;18639;50.716;7.086;2024-01-16T04:42:04;99793.25;;;1.55;100.00
32131;BME280;18639;50.716;7.086;2024-01-16T04:44:30;99802.75;;;1.50;100.00
32131;BME280;18639;50.716;7.086;2024-01-16T04:46:55;99808.75;;;1.49;100.00
32131;BME280;18639;50.716;7.086;2024-01-16T04:49:20;99805.19;;;1.53;100.00
32131;BME280;18639;50.716;7.086;2024-01-16T04:51:46;99802.91;;;1.45;100.00
32131;BME280;18639;50.716;7.086;2024-01-16T04:54:12;99804.63;;;1.45;100.00
32131;BME280;18639;50.716;7.086;2024-01-16T04:56:37;99806.41;;;1.43;100.00
32131;BME280;18639;50.716;7.086;2024-01-16T04:59:03;99779.31;;;1.42;100.00
32131;BME280;18639;50.716;7.086;2024-01-16T05:01:28;99772.66;;;1.38;100.00
32131;BME280;18639;50.716;7.086;2024-01-16T05:03:53;99771.06;;;1.35;100.00
32131;BME280;18639;50.716;7.086;2024-01-16T05:06:19;99799.31;;;1.51;100.00
32131;BME280;18639;50.716;7.086;2024-01-16T05:08:45;99769.34;;;1.36;100.00
32131;BME280;18639;50.716;7.086;2024-01-16T05:11:11;99792.81;;;1.44;100.00
32131;BME280;18639;50.716;7.086;2024-01-16T05:13:36;99778.38;;;1.44;100.00
32131;BME280;18639;50.716;7.086;2024-01-16T05:16:01;99790.81;;;1.52;100.00
32131;BME280;18639;50.716;7.086;2024-01-16T05:18:26;99801.78;;;1.54;100.00
32131;BME280;18639;50.716;7.086;2024-01-16T05:20:52;99788.47;;;1.46;100.00
32131;BME280;18639;50.716;7.086;2024-01-16T05:23:17;99787.25;;;1.56;100.00
32131;BME280;18639;50.716;7.086;2024-01-16T05:25:43;99790.72;;;1.55;100.00
32131;BME280;18639;50.716;7.086;2024-01-16T05:28:08;99770.00;;;1.41;100.00
32131;BME280;18639;50.716;7.086;2024-01-16T05:30:33;99782.38;;;1.50;100.00
32131;BME280;18639;50.716;7.086;2024-01-16T05:32:59;99778.28;;;1.46;100.00
32131;BME280;18639;50.716;7.086;2024-01-16T05:35:28;99788.81;;;1.60;100.00
32131;BME280;18639;50.716;7.086;2024-01-16T05:37:55;99776.38;;;1.52;100.00
32131;BME280;18639;50.716;7.086;2024-01-16T05:40:21;99762.94;;;1.49;100.00
32131;BME280;18639;50.716;7.086;2024-01-16T05:42:48;99775.31;;;1.58;100.00
32131;BME280;18639;50.716;7.086;2024-01-16T05:45:14;99775.19;;;1.61;100.00
32131;BME280;18639;50.716;7.086;2024-01-16T05:47:39;99755.28;;;1.49;100.00
32131;BME280;18639;50.716;7.086;2024-01-16T05:50:05;99766.00;;;1.57;100.00
32131;BME280;18639;50.716;7.086;2024-01-16T05:52:30;99764.34;;;1.56;100.00
32131;BME280;18639;50.716;7.086;2024-01-16T05:54:56;99760.16;;;1.55;100.00
32131;BME280;18639;50.716;7.086;2024-01-16T05:57:23;99768.56;;;1.57;100.00
32131;BME280;18639;50.716;7.086;2024-01-16T05:59:49;99757.44;;;1.59;100.00
32131;BME280;18639;50.716;7.086;2024-01-16T06:02:14;99767.41;;;1.65;100.00
32131;BME280;18639;50.716;7.086;2024-01-16T06:04:40;99766.47;;;1.66;100.00
32131;BME280;18639;50.716;7.086;2024-01-16T06:07:05;99739.94;;;1.50;100.00
32131;BME280;18639;50.716;7.086;2024-01-16T06:09:32;99756.47;;;1.62;100.00
32131;BME280;18639;50.716;7.086;2024-01-16T06:11:57;99768.81;;;1.73;100.00
32131;BME280;18639;50.716;7.086;2024-01-16T06:14:23;99766.47;;;1.66;100.00
32131;BME280;18639;50.716;7.086;2024-01-16T06:16:48;99775.25;;;1.59;100.00
32131;BME280;18639;50.716;7.086;2024-01-16T06:19:13;99766.56;;;1.65;100.00
32131;BME280;18639;50.716;7.086;2024-01-16T06:21:39;99767.97;;;1.72;100.00
32131;BME280;18639;50.716;7.086;2024-01-16T06:24:05;99762.31;;;1.65;100.00
32131;BME280;18639;50.716;7.086;2024-01-16T06:26:31;99760.56;;;1.66;100.00
32131;BME280;18639;50.716;7.086;2024-01-16T06:28:56;99775.59;;;1.72;100.00
32131;BME280;18639;50.716;7.086;2024-01-16T06:31:22;99717.38;;;1.41;100.00
32131;BME280;18639;50.716;7.086;2024-01-16T06:33:48;99762.88;;;1.72;100.00
32131;BME280;18639;50.716;7.086;2024-01-16T06:36:13;99750.50;;;1.63;100.00
32131;BME280;18639;50.716;7.086;2024-01-16T06:38:39;99755.59;;;1.63;100.00
32131;BME280;18639;50.716;7.086;2024-01-16T06:41:05;99768.97;;;1.68;100.00
32131;BME280;18639;50.716;7.086;2024-01-16T06:43:31;99763.94;;;1.66;100.00
32131;BME280;18639;50.716;7.086;2024-01-16T06:45:56;99754.06;;;1.59;100.00
32131;BME280;18639;50.716;7.086;2024-01-16T06:48:21;99769.81;;;1.68;100.00
32131;BME280;18639;50.716;7.086;2024-01-16T06:50:47;99774.97;;;1.67;100.00
32131;BME280;18639;50.716;7.086;2024-01-16T06:53:12;99777.84;;;1.58;100.00
32131;BME280;18639;50.716;7.086;2024-01-16T06:55:38;99770.38;;;1.53;100.00
32131;BME280;18639;50.716;7.086;2024-01-16T06:58:03;99772.88;;;1.55;100.00
32131;BME280;18639;50.716;7.086;2024-01-16T07:00:29;99759.94;;;1.38;100.00
32131;BME280;18639;50.716;7.086;2024-01-16T07:02:54;99765.78;;;1.40;100.00
32131;BME280;18639;50.716;7.086;2024-01-16T07:05:20;99787.44;;;1.51;100.00
32131;BME280;18639;50.716;7.086;2024-01-16T07:07:46;99790.59;;;1.58;100.00
32131;BME280;18639;50.716;7.086;2024-01-16T07:10:11;99779.09;;;1.48;100.00
32131;BME280;18639;50.716;7.086;2024-01-16T07:12:43;99805.81;;;1.59;100.00
32131;BME280;18639;50.716;7.086;2024-01-16T07:15:08;99798.50;;;1.50;100.00
32131;BME280;18639;50.716;7.086;2024-01-16T07:17:33;99771.22;;;1.31;100.00
32131;BME280;18639;50.716;7.086;2024-01-16T07:19:59;99783.59;;;1.40;100.00
32131;BME280;18639;50.716;7.086;2024-01-16T07:22:24;99788.59;;;1.43;100.00
32131;BME280;18639;50.716;7.086;2024-01-16T07:24:49;99787.19;;;1.34;100.00
32131;BME280;18639;50.716;7.086;2024-01-16T07:27:15;99809.59;;;1.49;100.00
32131;BME280;18639;50.716;7.086;2024-01-16T07:29:40;99782.84;;;1.38;100.00
32131;BME280;18639;50.716;7.086;2024-01-16T07:32:06;99813.72;;;1.52;100.00
32131;BME280;18639;50.716;7.086;2024-01-16T07:34:31;99814.00;;;1.44;100.00
32131;BME280;18639;50.716;7.086;2024-01-16T07:36:57;99793.91;;;1.37;100.00
32131;BME280;18639;50.716;7.086;2024-01-16T07:39:22;99760.06;;;1.11;100.00
32131;BME280;18639;50.716;7.086;2024-01-16T07:41:48;99813.28;;;1.41;100.00
32131;BME280;18639;50.716;7.086;2024-01-16T07:44:13;99807.91;;;1.25;100.00
32131;BME280;18639;50.716;7.086;2024-01-16T07:46:38;99798.66;;;1.22;100.00
32131;BME280;18639;50.716;7.086;2024-01-16T07:49:03;99810.28;;;1.30;100.00
32131;BME280;18639;50.716;7.086;2024-01-16T07:51:29;99815.56;;;1.23;100.00
32131;BME280;18639;50.716;7.086;2024-01-16T07:54:05;99819.25;;;1.16;100.00
32131;BME280;18639;50.716;7.086;2024-01-16T07:56:31;99769.41;;;0.86;100.00
32131;BME280;18639;50.716;7.086;2024-01-16T07:58:56;99816.84;;;1.12;100.00
32131;BME280;18639;50.716;7.086;2024-01-16T08:01:22;99831.16;;;1.14;100.00
32131;BME280;18639;50.716;7.086;2024-01-16T08:03:47;99807.09;;;1.00;100.00
32131;BME280;18639;50.716;7.086;2024-01-16T08:06:13;99834.59;;;1.13;100.00
32131;BME280;18639;50.716;7.086;2024-01-16T08:08:38;99822.75;;;1.12;100.00
32131;BME280;18639;50.716;7.086;2024-01-16T08:11:04;99840.50;;;1.14;100.00
32131;BME280;18639;50.716;7.086;2024-01-16T08:13:29;99836.16;;;1.17;100.00
32131;BME280;18639;50.716;7.086;2024-01-16T08:15:54;99847.97;;;1.18;100.00
32131;BME280;18639;50.716;7.086;2024-01-16T08:18:20;99832.00;;;1.15;100.00
32131;BME280;18639;50.716;7.086;2024-01-16T08:20:45;99832.88;;;1.14;100.00
32131;BME280;18639;50.716;7.086;2024-01-16T08:23:10;99844.56;;;1.19;100.00
32131;BME280;18639;50.716;7.086;2024-01-16T08:25:35;99819.66;;;1.04;100.00
32131;BME280;18639;50.716;7.086;2024-01-16T08:28:01;99847.78;;;1.24;100.00
32131;BME280;18639;50.716;7.086;2024-01-16T08:30:26;99852.03;;;1.24;100.00
32131;BME280;18639;50.716;7.086;2024-01-16T08:32:51;99850.28;;;1.26;100.00
32131;BME280;18639;50.716;7.086;2024-01-16T08:35:16;99832.63;;;1.21;100.00
32131;BME280;18639;50.716;7.086;2024-01-16T08:37:42;99842.59;;;1.27;100.00
32131;BME280;18639;50.716;7.086;2024-01-16T08:40:07;99866.16;;;1.33;100.00
32131;BME280;18639;50.716;7.086;2024-01-16T08:42:32;99838.72;;;1.17;100.00
32131;BME280;18639;50.716;7.086;2024-01-16T08:44:58;99865.00;;;1.41;100.00
32131;BME280;18639;50.716;7.086;2024-01-16T08:47:23;99862.19;;;1.49;100.00
32131;BME280;18639;50.716;7.086;2024-01-16T08:49:48;99868.59;;;1.82;100.00
32131;BME280;18639;50.716;7.086;2024-01-16T08:52:14;99861.63;;;2.32;100.00
32131;BME280;18639;50.716;7.086;2024-01-16T08:54:40;99866.91;;;2.91;100.00
32131;BME280;18639;50.716;7.086;2024-01-16T08:57:06;99870.63;;;3.44;100.00
32131;BME280;18639;50.716;7.086;2024-01-16T08:59:31;99881.25;;;3.73;100.00
32131;BME280;18639;50.716;7.086;2024-01-16T09:01:56;99872.13;;;4.24;100.00
32131;BME280;18639;50.716;7.086;2024-01-16T09:04:21;99854.72;;;4.49;100.00
32131;BME280;18639;50.716;7.086;2024-01-16T09:06:47;99862.50;;;4.48;97.98
32131;BME280;18639;50.716;7.086;2024-01-16T09:09:13;99865.50;;;4.20;96.72
32131;BME280;18639;50.716;7.086;2024-01-16T09:11:38;99862.03;;;4.02;96.25
32131;BME280;18639;50.716;7.086;2024-01-16T09:14:03;99831.13;;;3.71;98.87
32131;BME280;18639;50.716;7.086;2024-01-16T09:16:28;99848.94;;;3.91;98.29
32131;BME280;18639;50.716;7.086;2024-01-16T09:18:54;99861.44;;;4.16;97.86
32131;BME280;18639;50.716;7.086;2024-01-16T09:21:19;99855.72;;;4.28;98.68
32131;BME280;18639;50.716;7.086;2024-01-16T09:23:45;99869.34;;;4.47;96.15
32131;BME280;18639;50.716;7.086;2024-01-16T09:26:10;99872.44;;;4.54;93.80
32131;BME280;18639;50.716;7.086;2024-01-16T09:28:35;99851.56;;;4.44;94.07
32131;BME280;18639;50.716;7.086;2024-01-16T09:31:01;99880.41;;;4.65;94.21
32131;BME280;18639;50.716;7.086;2024-01-16T09:33:26;99879.44;;;4.68;90.70
32131;BME280;18639;50.716;7.086;2024-01-16T09:35:52;99868.00;;;4.57;90.23
32131;BME280;18639;50.716;7.086;2024-01-16T09:38:17;99874.47;;;4.64;90.73
32131;BME280;18639;50.716;7.086;2024-01-16T09:40:42;99882.97;;;4.29;89.17
32131;BME280;18639;50.716;7.086;2024-01-16T09:43:09;99876.34;;;4.25;91.38
32131;BME280;18639;50.716;7.086;2024-01-16T09:45:37;99876.47;;;4.22;91.55
32131;BME280;18639;50.716;7.086;2024-01-16T09:48:02;99871.41;;;3.85;93.16
32131;BME280;18639;50.716;7.086;2024-01-16T09:50:29;99885.06;;;3.84;93.57
32131;BME280;18639;50.716;7.086;2024-01-16T09:52:55;99840.50;;;3.52;94.72
32131;BME280;18639;50.716;7.086;2024-01-16T09:55:20;99868.13;;;3.62;97.10
32131;BME280;18639;50.716;7.086;2024-01-16T09:57:52;99848.53;;;3.24;93.62
32131;BME280;18639;50.716;7.086;2024-01-16T10:00:19;99875.00;;;3.21;94.59
32131;BME280;18639;50.716;7.086;2024-01-16T10:02:44;99858.94;;;3.19;94.96
32131;BME280;18639;50.716;7.086;2024-01-16T10:05:11;99853.88;;;3.18;96.34
32131;BME280;18639;50.716;7.086;2024-01-16T10:07:40;99863.78;;;3.25;95.78
32131;BME280;18639;50.716;7.086;2024-01-16T10:10:07;99858.31;;;3.33;95.19
32131;BME280;18639;50.716;7.086;2024-01-16T10:12:37;99857.41;;;3.54;95.21
32131;BME280;18639;50.716;7.086;2024-01-16T10:15:05;99825.91;;;3.35;95.07
32131;BME280;18639;50.716;7.086;2024-01-16T10:17:43;99842.50;;;3.45;96.09
32131;BME280;18639;50.716;7.086;2024-01-16T10:20:10;99838.63;;;3.36;96.63
32131;BME280;18639;50.716;7.086;2024-01-16T10:22:42;99849.94;;;3.31;96.14
32131;BME280;18639;50.716;7.086;2024-01-16T10:25:16;99849.78;;;3.34;98.13
32131;BME280;18639;50.716;7.086;2024-01-16T10:27:44;99844.25;;;3.24;98.66
32131;BME280;18639;50.716;7.086;2024-01-16T10:30:10;99847.75;;;3.22;97.53
32131;BME280;18639;50.716;7.086;2024-01-16T10:32:36;99852.00;;;3.21;98.82
32131;BME280;18639;50.716;7.086;2024-01-16T10:35:09;99842.34;;;3.09;99.98
32131;BME280;18639;50.716;7.086;2024-01-16T10:37:55;99824.09;;;2.98;100.00
32131;BME280;18639;50.716;7.086;2024-01-16T10:40:24;99814.63;;;3.00;100.00
32131;BME280;18639;50.716;7.086;2024-01-16T10:43:04;99829.13;;;3.00;100.00
32131;BME280;18639;50.716;7.086;2024-01-16T10:45:31;99811.41;;;2.96;100.00
32131;BME280;18639;50.716;7.086;2024-01-16T10:48:03;99817.91;;;3.04;100.00
32131;BME280;18639;50.716;7.086;2024-01-16T10:50:30;99812.91;;;3.01;100.00
32131;BME280;18639;50.716;7.086;2024-01-16T10:52:59;99798.50;;;3.00;100.00
32131;BME280;18639;50.716;7.086;2024-01-16T10:55:27;99795.38;;;3.13;100.00
32131;BME280;18639;50.716;7.086;2024-01-16T10:57:53;99807.78;;;3.21;100.00
32131;BME280;18639;50.716;7.086;2024-01-16T11:00:21;99803.59;;;3.20;100.00
32131;BME280;18639;50.716;7.086;2024-01-16T11:03:04;99773.91;;;2.99;100.00
32131;BME280;18639;50.716;7.086;2024-01-16T11:05:31;99784.47;;;3.10;100.00
32131;BME280;18639;50.716;7.086;2024-01-16T11:07:59;99792.63;;;3.18;100.00
32131;BME280;18639;50.716;7.086;2024-01-16T11:10:27;99791.22;;;3.11;100.00
32131;BME280;18639;50.716;7.086;2024-01-16T11:12:53;99782.50;;;2.96;100.00
32131;BME280;18639;50.716;7.086;2024-01-16T11:15:19;99781.28;;;2.84;100.00
32131;BME280;18639;50.716;7.086;2024-01-16T11:17:45;99792.59;;;2.99;100.00
32131;BME280;18639;50.716;7.086;2024-01-16T11:20:11;99781.47;;;2.80;100.00
32131;BME280;18639;50.716;7.086;2024-01-16T11:22:39;99800.22;;;2.79;100.00
32131;BME280;18639;50.716;7.086;2024-01-16T11:25:13;99783.47;;;2.93;100.00
32131;BME280;18639;50.716;7.086;2024-01-16T11:27:40;99746.03;;;2.74;100.00
32131;BME280;18639;50.716;7.086;2024-01-16T11:30:10;99782.28;;;3.01;100.00
32131;BME280;18639;50.716;7.086;2024-01-16T11:32:37;99781.81;;;2.92;100.00
32131;BME280;18639;50.716;7.086;2024-01-16T11:35:05;99777.44;;;2.94;100.00
32131;BME280;18639;50.716;7.086;2024-01-16T11:37:31;99778.09;;;3.00;100.00
32131;BME280;18639;50.716;7.086;2024-01-16T11:42:45;99783.69;;;3.08;100.00
32131;BME280;18639;50.716;7.086;2024-01-16T11:48:13;99785.16;;;3.13;99.60
32131;BME280;18639;50.716;7.086;2024-01-16T11:50:39;99783.81;;;3.25;100.00
32131;BME280;18639;50.716;7.086;2024-01-16T11:53:04;99777.13;;;3.41;100.00
32131;BME280;18639;50.716;7.086;2024-01-16T11:55:32;99792.81;;;3.52;97.23
32131;BME280;18639;50.716;7.086;2024-01-16T12:01:05;99785.25;;;3.49;94.70
32131;BME280;18639;50.716;7.086;2024-01-16T12:03:31;99793.34;;;3.40;94.89
32131;BME280;18639;50.716;7.086;2024-01-16T12:05:57;99775.88;;;3.31;94.77
32131;BME280;18639;50.716;7.086;2024-01-16T12:08:23;99766.00;;;3.23;97.33
32131;BME280;18639;50.716;7.086;2024-01-16T12:10:48;99776.06;;;3.26;96.48
32131;BME280;18639;50.716;7.086;2024-01-16T12:13:14;99743.91;;;3.04;94.12
32131;BME280;18639;50.716;7.086;2024-01-16T12:15:39;99752.56;;;3.00;95.17
32131;BME280;18639;50.716;7.086;2024-01-16T12:18:05;99759.59;;;3.15;94.75
32131;BME280;18639;50.716;7.086;2024-01-16T12:20:32;99756.19;;;3.14;94.99
32131;BME280;18639;50.716;7.086;2024-01-16T12:23:00;99751.03;;;2.95;91.92
32131;BME280;18639;50.716;7.086;2024-01-16T12:25:27;99747.91;;;3.09;92.10
32131;BME280;18639;50.716;7.086;2024-01-16T12:28:02;99746.97;;;2.91;92.90
32131;BME280;18639;50.716;7.086;2024-01-16T12:30:30;99733.03;;;2.80;95.15
32131;BME280;18639;50.716;7.086;2024-01-16T12:33:16;99741.50;;;2.80;93.97
32131;BME280;18639;50.716;7.086;2024-01-16T12:35:46;99720.41;;;2.77;95.23
32131;BME280;18639;50.716;7.086;2024-01-16T12:38:12;99723.88;;;2.94;94.51
32131;BME280;18639;50.716;7.086;2024-01-16T12:40:48;99716.56;;;2.87;94.33
32131;BME280;18639;50.716;7.086;2024-01-16T12:43:16;99719.47;;;2.98;95.81
32131;BME280;18639;50.716;7.086;2024-01-16T12:45:42;99725.22;;;3.03;98.01
32131;BME280;18639;50.716;7.086;2024-01-16T12:48:07;99727.63;;;3.06;98.25
32131;BME280;18639;50.716;7.086;2024-01-16T12:50:33;99720.72;;;3.08;98.05
32131;BME280;18639;50.716;7.086;2024-01-16T12:53:03;99715.22;;;3.17;97.39
32131;BME280;18639;50.716;7.086;2024-01-16T12:55:30;99704.94;;;3.19;97.61
32131;BME280;18639;50.716;7.086;2024-01-16T12:58:19;99708.19;;;3.22;97.03
32131;BME280;18639;50.716;7.086;2024-01-16T13:00:48;99701.84;;;3.31;94.96
32131;BME280;18639;50.716;7.086;2024-01-16T13:03:18;99699.28;;;3.31;95.05
32131;BME280;18639;50.716;7.086;2024-01-16T13:05:45;99701.00;;;3.30;94.78
32131;BME280;18639;50.716;7.086;2024-01-16T13:08:18;99698.78;;;3.23;94.17